sensor_id;sensor_type;location;lat;lon;timestamp;P1;durP1;ratioP1;P2;durP2;ratioP2
19812;SDS011;10066;48.108;11.448;2023-05-10T00:00:45;1.10;;;1.00;;
19812;SDS011;10066;48.108;11.448;2023-05-10T00:03:12;1.10;;;1.00;;
19812;SDS011;10066;48.108;11.448;2023-05-10T00:05:39;2.00;;;1.10;;
19812;SDS011;10066;48.108;11.448;2023-05-10T00:08:06;1.50;;;1.20;;
19812;SDS011;10066;48.108;11.448;2023-05-10T00:10:34;3.37;;;1.10;;
19812;SDS011;10066;48.108;11.448;2023-05-10T00:13:02;2.43;;;1.13;;
19812;SDS011;10066;48.108;11.448;2023-05-10T00:15:29;2.20;;;1.17;;
19812;SDS011;10066;48.108;11.448;2023-05-10T00:17:56;2.13;;;1.20;;
19812;SDS011;10066;48.108;11.448;2023-05-10T00:20:23;1.97;;;1.20;;
19812;SDS011;10066;48.108;11.448;2023-05-10T00:22:50;2.03;;;1.17;;
19812;SDS011;10066;48.108;11.448;2023-05-10T00:25:17;3.17;;;1.00;;
19812;SDS011;10066;48.108;11.448;2023-05-10T00:27:47;1.30;;;1.20;;
19812;SDS011;10066;48.108;11.448;2023-05-10T00:30:14;3.63;;;1.13;;
19812;SDS011;10066;48.108;11.448;2023-05-10T00:32:42;1.47;;;1.00;;
19812;SDS011;10066;48.108;11.448;2023-05-10T00:35:09;1.63;;;1.00;;
19812;SDS011;10066;48.108;11.448;2023-05-10T00:37:36;1.83;;;1.20;;
19812;SDS011;10066;48.108;11.448;2023-05-10T00:40:03;2.40;;;1.10;;
19812;SDS011;10066;48.108;11.448;2023-05-10T00:42:32;2.77;;;1.17;;
19812;SDS011;10066;48.108;11.448;2023-05-10T00:45:00;1.67;;;1.07;;
19812;SDS011;10066;48.108;11.448;2023-05-10T00:47:27;1.80;;;1.00;;
19812;SDS011;10066;48.108;11.448;2023-05-10T00:49:54;1.40;;;0.90;;
19812;SDS011;10066;48.108;11.448;2023-05-10T00:52:21;1.90;;;1.10;;
19812;SDS011;10066;48.108;11.448;2023-05-10T00:54:49;1.33;;;1.07;;
19812;SDS011;10066;48.108;11.448;2023-05-10T00:57:16;1.13;;;0.90;;
19812;SDS011;10066;48.108;11.448;2023-05-10T00:59:43;1.27;;;0.90;;
19812;SDS011;10066;48.108;11.448;2023-05-10T01:02:11;0.90;;;0.80;;
19812;SDS011;10066;48.108;11.448;2023-05-10T01:04:39;0.73;;;0.70;;
19812;SDS011;10066;48.108;11.448;2023-05-10T01:07:06;1.73;;;0.80;;
19812;SDS011;10066;48.108;11.448;2023-05-10T01:09:33;1.17;;;0.90;;
19812;SDS011;10066;48.108;11.448;2023-05-10T01:12:00;2.20;;;0.90;;
19812;SDS011;10066;48.108;11.448;2023-05-10T01:14:28;2.40;;;1.00;;
19812;SDS011;10066;48.108;11.448;2023-05-10T01:16:56;1.40;;;0.90;;
19812;SDS011;10066;48.108;11.448;2023-05-10T01:19:25;1.23;;;1.00;;
19812;SDS011;10066;48.108;11.448;2023-05-10T01:21:55;2.70;;;0.90;;
19812;SDS011;10066;48.108;11.448;2023-05-10T01:24:38;1.27;;;0.73;;
19812;SDS011;10066;48.108;11.448;2023-05-10T01:27:41;0.67;;;0.67;;
19812;SDS011;10066;48.108;11.448;2023-05-10T01:30:34;0.63;;;0.63;;
19812;SDS011;10066;48.108;11.448;2023-05-10T01:33:18;1.73;;;0.80;;
19812;SDS011;10066;48.108;11.448;2023-05-10T01:35:51;1.53;;;0.80;;
19812;SDS011;10066;48.108;11.448;2023-05-10T01:38:22;1.87;;;0.80;;
19812;SDS011;10066;48.108;11.448;2023-05-10T01:40:58;0.90;;;0.80;;
19812;SDS011;10066;48.108;11.448;2023-05-10T01:43:33;0.70;;;0.63;;
19812;SDS011;10066;48.108;11.448;2023-05-10T01:46:05;1.03;;;0.80;;
19812;SDS011;10066;48.108;11.448;2023-05-10T01:48:37;0.70;;;0.63;;
19812;SDS011;10066;48.108;11.448;2023-05-10T01:51:11;1.00;;;0.70;;
19812;SDS011;10066;48.108;11.448;2023-05-10T01:53:41;1.43;;;0.63;;
19812;SDS011;10066;48.108;11.448;2023-05-10T01:56:10;0.93;;;0.80;;
19812;SDS011;10066;48.108;11.448;2023-05-10T01:58:39;0.97;;;0.70;;
19812;SDS011;10066;48.108;11.448;2023-05-10T02:01:08;3.77;;;0.90;;
19812;SDS011;10066;48.108;11.448;2023-05-10T02:03:38;1.33;;;0.60;;
19812;SDS011;10066;48.108;11.448;2023-05-10T02:06:07;1.27;;;1.00;;
19812;SDS011;10066;48.108;11.448;2023-05-10T02:08:36;1.13;;;0.70;;
19812;SDS011;10066;48.108;11.448;2023-05-10T02:11:06;1.53;;;0.77;;
19812;SDS011;10066;48.108;11.448;2023-05-10T02:13:34;1.37;;;0.70;;
19812;SDS011;10066;48.108;11.448;2023-05-10T02:16:04;4.53;;;0.80;;
19812;SDS011;10066;48.108;11.448;2023-05-10T02:18:33;0.63;;;0.60;;
19812;SDS011;10066;48.108;11.448;2023-05-10T02:21:03;2.13;;;0.70;;
19812;SDS011;10066;48.108;11.448;2023-05-10T02:23:31;2.83;;;0.90;;
19812;SDS011;10066;48.108;11.448;2023-05-10T02:25:59;1.17;;;0.60;;
19812;SDS011;10066;48.108;11.448;2023-05-10T02:28:27;2.57;;;0.80;;
19812;SDS011;10066;48.108;11.448;2023-05-10T02:30:55;1.30;;;0.60;;
19812;SDS011;10066;48.108;11.448;2023-05-10T02:33:23;0.70;;;0.60;;
19812;SDS011;10066;48.108;11.448;2023-05-10T02:35:51;0.93;;;0.60;;
19812;SDS011;10066;48.108;11.448;2023-05-10T02:38:20;0.80;;;0.60;;
19812;SDS011;10066;48.108;11.448;2023-05-10T02:40:49;1.60;;;0.70;;
19812;SDS011;10066;48.108;11.448;2023-05-10T02:43:17;1.23;;;0.70;;
19812;SDS011;10066;48.108;11.448;2023-05-10T02:45:46;0.60;;;0.57;;
19812;SDS011;10066;48.108;11.448;2023-05-10T02:48:15;1.00;;;0.80;;
19812;SDS011;10066;48.108;11.448;2023-05-10T02:50:42;1.93;;;0.67;;
19812;SDS011;10066;48.108;11.448;2023-05-10T02:53:15;1.00;;;0.73;;
19812;SDS011;10066;48.108;11.448;2023-05-10T02:55:47;1.07;;;0.63;;
19812;SDS011;10066;48.108;11.448;2023-05-10T02:58:17;3.03;;;0.80;;
19812;SDS011;10066;48.108;11.448;2023-05-10T03:00:45;0.83;;;0.60;;
19812;SDS011;10066;48.108;11.448;2023-05-10T03:03:12;1.53;;;0.60;;
19812;SDS011;10066;48.108;11.448;2023-05-10T03:05:39;2.73;;;0.80;;
19812;SDS011;10066;48.108;11.448;2023-05-10T03:08:06;0.60;;;0.60;;
19812;SDS011;10066;48.108;11.448;2023-05-10T03:10:33;1.50;;;0.60;;
19812;SDS011;10066;48.108;11.448;2023-05-10T03:13:11;3.07;;;0.80;;
19812;SDS011;10066;48.108;11.448;2023-05-10T03:15:55;0.90;;;0.60;;
19812;SDS011;10066;48.108;11.448;2023-05-10T03:18:29;0.70;;;0.60;;
19812;SDS011;10066;48.108;11.448;2023-05-10T03:21:07;0.90;;;0.50;;
19812;SDS011;10066;48.108;11.448;2023-05-10T03:23:39;1.43;;;0.60;;
19812;SDS011;10066;48.108;11.448;2023-05-10T03:26:09;0.80;;;0.60;;
19812;SDS011;10066;48.108;11.448;2023-05-10T03:28:42;0.50;;;0.50;;
19812;SDS011;10066;48.108;11.448;2023-05-10T03:31:10;0.77;;;0.73;;
19812;SDS011;10066;48.108;11.448;2023-05-10T03:33:45;1.10;;;0.70;;
19812;SDS011;10066;48.108;11.448;2023-05-10T03:36:12;2.07;;;1.20;;
19812;SDS011;10066;48.108;11.448;2023-05-10T03:38:39;8.07;;;1.57;;
19812;SDS011;10066;48.108;11.448;2023-05-10T03:41:06;1.50;;;0.90;;
19812;SDS011;10066;48.108;11.448;2023-05-10T03:43:34;1.63;;;1.20;;
19812;SDS011;10066;48.108;11.448;2023-05-10T03:46:02;4.70;;;1.67;;
19812;SDS011;10066;48.108;11.448;2023-05-10T03:48:30;1.27;;;0.70;;
19812;SDS011;10066;48.108;11.448;2023-05-10T03:50:57;1.00;;;0.70;;
19812;SDS011;10066;48.108;11.448;2023-05-10T03:53:24;0.90;;;0.63;;
19812;SDS011;10066;48.108;11.448;2023-05-10T03:55:51;2.23;;;0.90;;
19812;SDS011;10066;48.108;11.448;2023-05-10T03:58:18;1.27;;;0.70;;
19812;SDS011;10066;48.108;11.448;2023-05-10T04:00:45;1.90;;;0.60;;
19812;SDS011;10066;48.108;11.448;2023-05-10T04:03:14;1.40;;;0.80;;
19812;SDS011;10066;48.108;11.448;2023-05-10T04:05:42;1.07;;;0.67;;
19812;SDS011;10066;48.108;11.448;2023-05-10T04:08:08;1.80;;;0.90;;
19812;SDS011;10066;48.108;11.448;2023-05-10T04:10:36;0.60;;;0.50;;
19812;SDS011;10066;48.108;11.448;2023-05-10T04:13:02;0.87;;;0.73;;
19812;SDS011;10066;48.108;11.448;2023-05-10T04:15:29;1.17;;;0.80;;
19812;SDS011;10066;48.108;11.448;2023-05-10T04:17:56;2.50;;;0.70;;
19812;SDS011;10066;48.108;11.448;2023-05-10T04:20:24;0.60;;;0.60;;
19812;SDS011;10066;48.108;11.448;2023-05-10T04:22:51;0.53;;;0.50;;
19812;SDS011;10066;48.108;11.448;2023-05-10T04:25:18;0.70;;;0.60;;
19812;SDS011;10066;48.108;11.448;2023-05-10T04:27:45;0.97;;;0.70;;
19812;SDS011;10066;48.108;11.448;2023-05-10T04:30:12;0.97;;;0.80;;
19812;SDS011;10066;48.108;11.448;2023-05-10T04:32:39;1.80;;;0.70;;
19812;SDS011;10066;48.108;11.448;2023-05-10T04:35:06;2.50;;;1.27;;
19812;SDS011;10066;48.108;11.448;2023-05-10T04:37:36;1.97;;;0.67;;
19812;SDS011;10066;48.108;11.448;2023-05-10T04:40:03;1.23;;;0.60;;
19812;SDS011;10066;48.108;11.448;2023-05-10T04:42:31;2.13;;;0.73;;
19812;SDS011;10066;48.108;11.448;2023-05-10T04:44:58;1.03;;;0.80;;
19812;SDS011;10066;48.108;11.448;2023-05-10T04:47:25;0.80;;;0.43;;
19812;SDS011;10066;48.108;11.448;2023-05-10T04:49:52;0.90;;;0.70;;
19812;SDS011;10066;48.108;11.448;2023-05-10T04:52:18;1.67;;;1.20;;
19812;SDS011;10066;48.108;11.448;2023-05-10T04:54:47;0.70;;;0.53;;
19812;SDS011;10066;48.108;11.448;2023-05-10T04:57:14;1.57;;;0.50;;
19812;SDS011;10066;48.108;11.448;2023-05-10T04:59:41;2.50;;;0.60;;
19812;SDS011;10066;48.108;11.448;2023-05-10T05:02:08;1.00;;;0.70;;
19812;SDS011;10066;48.108;11.448;2023-05-10T05:04:34;1.23;;;0.70;;
19812;SDS011;10066;48.108;11.448;2023-05-10T05:07:01;3.07;;;0.50;;
19812;SDS011;10066;48.108;11.448;2023-05-10T05:09:28;0.50;;;0.40;;
19812;SDS011;10066;48.108;11.448;2023-05-10T05:11:58;0.50;;;0.50;;
19812;SDS011;10066;48.108;11.448;2023-05-10T05:14:25;0.93;;;0.70;;
19812;SDS011;10066;48.108;11.448;2023-05-10T05:16:51;1.10;;;0.40;;
19812;SDS011;10066;48.108;11.448;2023-05-10T05:19:18;0.30;;;0.30;;
19812;SDS011;10066;48.108;11.448;2023-05-10T05:21:45;0.70;;;0.40;;
19812;SDS011;10066;48.108;11.448;2023-05-10T05:24:12;2.57;;;0.77;;
19812;SDS011;10066;48.108;11.448;2023-05-10T05:26:39;0.50;;;0.43;;
19812;SDS011;10066;48.108;11.448;2023-05-10T05:29:07;0.63;;;0.50;;
19812;SDS011;10066;48.108;11.448;2023-05-10T05:31:34;0.60;;;0.50;;
19812;SDS011;10066;48.108;11.448;2023-05-10T05:34:01;0.50;;;0.40;;
19812;SDS011;10066;48.108;11.448;2023-05-10T05:36:28;0.50;;;0.40;;
19812;SDS011;10066;48.108;11.448;2023-05-10T05:38:55;4.00;;;0.47;;
19812;SDS011;10066;48.108;11.448;2023-05-10T05:41:22;3.30;;;0.40;;
19812;SDS011;10066;48.108;11.448;2023-05-10T05:43:50;0.33;;;0.20;;
19812;SDS011;10066;48.108;11.448;2023-05-10T05:46:18;0.50;;;0.40;;
19812;SDS011;10066;48.108;11.448;2023-05-10T05:48:45;0.30;;;0.27;;
19812;SDS011;10066;48.108;11.448;2023-05-10T05:51:12;1.10;;;0.50;;
19812;SDS011;10066;48.108;11.448;2023-05-10T05:53:39;1.57;;;0.50;;
19812;SDS011;10066;48.108;11.448;2023-05-10T05:56:05;1.00;;;0.40;;
19812;SDS011;10066;48.108;11.448;2023-05-10T05:58:33;0.87;;;0.50;;
19812;SDS011;10066;48.108;11.448;2023-05-10T06:00:59;3.80;;;0.63;;
19812;SDS011;10066;48.108;11.448;2023-05-10T06:03:28;1.80;;;0.70;;
19812;SDS011;10066;48.108;11.448;2023-05-10T06:05:55;0.50;;;0.50;;
19812;SDS011;10066;48.108;11.448;2023-05-10T06:08:22;1.50;;;0.90;;
19812;SDS011;10066;48.108;11.448;2023-05-10T06:10:49;1.00;;;0.73;;
19812;SDS011;10066;48.108;11.448;2023-05-10T06:13:15;1.07;;;0.60;;
19812;SDS011;10066;48.108;11.448;2023-05-10T06:15:42;1.57;;;1.07;;
19812;SDS011;10066;48.108;11.448;2023-05-10T06:18:09;1.00;;;0.70;;
19812;SDS011;10066;48.108;11.448;2023-05-10T06:20:37;1.57;;;0.67;;
19812;SDS011;10066;48.108;11.448;2023-05-10T06:23:04;1.10;;;0.70;;
19812;SDS011;10066;48.108;11.448;2023-05-10T06:25:31;2.63;;;0.80;;
19812;SDS011;10066;48.108;11.448;2023-05-10T06:27:58;4.10;;;0.90;;
19812;SDS011;10066;48.108;11.448;2023-05-10T06:30:25;0.93;;;0.80;;
19812;SDS011;10066;48.108;11.448;2023-05-10T06:32:53;1.97;;;0.97;;
19812;SDS011;10066;48.108;11.448;2023-05-10T06:35:20;1.80;;;0.97;;
19812;SDS011;10066;48.108;11.448;2023-05-10T06:37:49;0.97;;;0.83;;
19812;SDS011;10066;48.108;11.448;2023-05-10T06:40:16;4.33;;;0.87;;
19812;SDS011;10066;48.108;11.448;2023-05-10T06:42:44;1.10;;;0.90;;
19812;SDS011;10066;48.108;11.448;2023-05-10T06:45:11;1.63;;;1.07;;
19812;SDS011;10066;48.108;11.448;2023-05-10T06:47:39;1.90;;;1.20;;
19812;SDS011;10066;48.108;11.448;2023-05-10T06:50:06;2.73;;;1.23;;
19812;SDS011;10066;48.108;11.448;2023-05-10T06:52:34;1.40;;;1.00;;
19812;SDS011;10066;48.108;11.448;2023-05-10T06:55:02;1.73;;;1.00;;
19812;SDS011;10066;48.108;11.448;2023-05-10T06:57:30;1.63;;;1.07;;
19812;SDS011;10066;48.108;11.448;2023-05-10T06:59:57;3.40;;;1.20;;
19812;SDS011;10066;48.108;11.448;2023-05-10T07:02:24;2.67;;;1.00;;
19812;SDS011;10066;48.108;11.448;2023-05-10T07:04:51;2.90;;;1.20;;
19812;SDS011;10066;48.108;11.448;2023-05-10T07:07:19;5.00;;;1.00;;
19812;SDS011;10066;48.108;11.448;2023-05-10T07:09:46;1.10;;;0.80;;
19812;SDS011;10066;48.108;11.448;2023-05-10T07:12:15;1.43;;;0.90;;
19812;SDS011;10066;48.108;11.448;2023-05-10T07:14:42;1.37;;;0.80;;
19812;SDS011;10066;48.108;11.448;2023-05-10T07:17:09;1.40;;;1.00;;
19812;SDS011;10066;48.108;11.448;2023-05-10T07:19:36;3.07;;;1.10;;
19812;SDS011;10066;48.108;11.448;2023-05-10T07:22:02;1.83;;;1.00;;
19812;SDS011;10066;48.108;11.448;2023-05-10T07:24:29;2.80;;;1.10;;
19812;SDS011;10066;48.108;11.448;2023-05-10T07:26:57;1.97;;;0.80;;
19812;SDS011;10066;48.108;11.448;2023-05-10T07:29:25;1.57;;;0.80;;
19812;SDS011;10066;48.108;11.448;2023-05-10T07:31:53;1.20;;;1.10;;
19812;SDS011;10066;48.108;11.448;2023-05-10T07:34:20;1.07;;;0.80;;
19812;SDS011;10066;48.108;11.448;2023-05-10T07:36:47;2.10;;;1.13;;
19812;SDS011;10066;48.108;11.448;2023-05-10T07:39:14;2.27;;;1.07;;
19812;SDS011;10066;48.108;11.448;2023-05-10T07:41:41;2.37;;;0.83;;
19812;SDS011;10066;48.108;11.448;2023-05-10T07:44:08;1.60;;;0.90;;
19812;SDS011;10066;48.108;11.448;2023-05-10T07:46:37;2.40;;;0.90;;
19812;SDS011;10066;48.108;11.448;2023-05-10T07:49:04;1.00;;;0.80;;
19812;SDS011;10066;48.108;11.448;2023-05-10T07:51:31;0.97;;;0.70;;
19812;SDS011;10066;48.108;11.448;2023-05-10T07:53:57;1.13;;;0.70;;
19812;SDS011;10066;48.108;11.448;2023-05-10T07:56:25;1.37;;;0.80;;
19812;SDS011;10066;48.108;11.448;2023-05-10T07:58:54;2.53;;;0.73;;
19812;SDS011;10066;48.108;11.448;2023-05-10T08:01:22;1.17;;;0.80;;
19812;SDS011;10066;48.108;11.448;2023-05-10T08:03:50;0.93;;;0.60;;
19812;SDS011;10066;48.108;11.448;2023-05-10T08:06:18;0.73;;;0.70;;
19812;SDS011;10066;48.108;11.448;2023-05-10T08:08:46;3.57;;;0.70;;
19812;SDS011;10066;48.108;11.448;2023-05-10T08:11:15;2.60;;;0.70;;
19812;SDS011;10066;48.108;11.448;2023-05-10T08:13:42;0.80;;;0.63;;
19812;SDS011;10066;48.108;11.448;2023-05-10T08:16:09;0.60;;;0.60;;
19812;SDS011;10066;48.108;11.448;2023-05-10T08:18:36;1.50;;;0.60;;
19812;SDS011;10066;48.108;11.448;2023-05-10T08:21:05;0.73;;;0.60;;
19812;SDS011;10066;48.108;11.448;2023-05-10T08:23:32;1.87;;;0.60;;
19812;SDS011;10066;48.108;11.448;2023-05-10T08:26:00;0.63;;;0.47;;
19812;SDS011;10066;48.108;11.448;2023-05-10T08:28:27;0.80;;;0.60;;
19812;SDS011;10066;48.108;11.448;2023-05-10T08:30:54;1.43;;;0.50;;
19812;SDS011;10066;48.108;11.448;2023-05-10T08:33:20;0.57;;;0.50;;
19812;SDS011;10066;48.108;11.448;2023-05-10T08:35:47;0.60;;;0.50;;
19812;SDS011;10066;48.108;11.448;2023-05-10T08:38:17;0.60;;;0.50;;
19812;SDS011;10066;48.108;11.448;2023-05-10T08:40:44;1.23;;;0.50;;
19812;SDS011;10066;48.108;11.448;2023-05-10T08:43:12;2.60;;;0.43;;
19812;SDS011;10066;48.108;11.448;2023-05-10T08:45:41;0.30;;;0.30;;
19812;SDS011;10066;48.108;11.448;2023-05-10T08:48:10;0.57;;;0.43;;
19812;SDS011;10066;48.108;11.448;2023-05-10T08:50:38;1.63;;;0.50;;
19812;SDS011;10066;48.108;11.448;2023-05-10T08:53:06;1.73;;;0.40;;
19812;SDS011;10066;48.108;11.448;2023-05-10T08:55:37;1.83;;;0.60;;
19812;SDS011;10066;48.108;11.448;2023-05-10T08:58:05;0.70;;;0.50;;
19812;SDS011;10066;48.108;11.448;2023-05-10T09:00:32;2.90;;;0.60;;
19812;SDS011;10066;48.108;11.448;2023-05-10T09:03:00;1.77;;;0.50;;
19812;SDS011;10066;48.108;11.448;2023-05-10T09:05:27;0.50;;;0.47;;
19812;SDS011;10066;48.108;11.448;2023-05-10T09:07:54;0.83;;;0.57;;
19812;SDS011;10066;48.108;11.448;2023-05-10T09:10:21;2.83;;;0.63;;
19812;SDS011;10066;48.108;11.448;2023-05-10T09:12:53;5.07;;;0.60;;
19812;SDS011;10066;48.108;11.448;2023-05-10T09:15:22;1.33;;;0.50;;
19812;SDS011;10066;48.108;11.448;2023-05-10T09:17:49;4.80;;;0.63;;
19812;SDS011;10066;48.108;11.448;2023-05-10T09:20:16;0.70;;;0.60;;
19812;SDS011;10066;48.108;11.448;2023-05-10T09:22:43;2.70;;;2.13;;
19812;SDS011;10066;48.108;11.448;2023-05-10T09:25:12;1.90;;;0.70;;
19812;SDS011;10066;48.108;11.448;2023-05-10T09:27:40;2.60;;;0.70;;
19812;SDS011;10066;48.108;11.448;2023-05-10T09:30:14;0.63;;;0.60;;
19812;SDS011;10066;48.108;11.448;2023-05-10T09:32:43;1.00;;;0.50;;
19812;SDS011;10066;48.108;11.448;2023-05-10T09:35:11;1.37;;;0.50;;
19812;SDS011;10066;48.108;11.448;2023-05-10T09:37:40;0.40;;;0.30;;
19812;SDS011;10066;48.108;11.448;2023-05-10T09:40:11;0.43;;;0.40;;
19812;SDS011;10066;48.108;11.448;2023-05-10T09:42:39;0.67;;;0.40;;
19812;SDS011;10066;48.108;11.448;2023-05-10T09:45:08;0.87;;;0.50;;
19812;SDS011;10066;48.108;11.448;2023-05-10T09:47:37;0.90;;;0.60;;
19812;SDS011;10066;48.108;11.448;2023-05-10T09:50:04;0.57;;;0.40;;
19812;SDS011;10066;48.108;11.448;2023-05-10T09:52:45;0.50;;;0.47;;
19812;SDS011;10066;48.108;11.448;2023-05-10T09:55:13;0.80;;;0.50;;
19812;SDS011;10066;48.108;11.448;2023-05-10T09:57:40;1.23;;;0.60;;
19812;SDS011;10066;48.108;11.448;2023-05-10T10:00:07;2.00;;;0.50;;
19812;SDS011;10066;48.108;11.448;2023-05-10T10:02:38;1.10;;;0.60;;
19812;SDS011;10066;48.108;11.448;2023-05-10T10:05:06;0.87;;;0.30;;
19812;SDS011;10066;48.108;11.448;2023-05-10T10:07:33;1.07;;;0.60;;
19812;SDS011;10066;48.108;11.448;2023-05-10T10:10:00;1.53;;;0.57;;
19812;SDS011;10066;48.108;11.448;2023-05-10T10:12:29;1.97;;;0.50;;
19812;SDS011;10066;48.108;11.448;2023-05-10T10:14:57;9.30;;;1.47;;
19812;SDS011;10066;48.108;11.448;2023-05-10T10:17:26;2.10;;;0.70;;
19812;SDS011;10066;48.108;11.448;2023-05-10T10:19:55;43.73;;;4.97;;
19812;SDS011;10066;48.108;11.448;2023-05-10T10:22:23;41.63;;;3.23;;
19812;SDS011;10066;48.108;11.448;2023-05-10T10:24:51;25.23;;;2.67;;
19812;SDS011;10066;48.108;11.448;2023-05-10T10:27:20;1.77;;;0.70;;
19812;SDS011;10066;48.108;11.448;2023-05-10T10:29:58;3.67;;;0.70;;
19812;SDS011;10066;48.108;11.448;2023-05-10T10:32:33;3.80;;;1.00;;
19812;SDS011;10066;48.108;11.448;2023-05-10T10:35:10;2.27;;;0.70;;
19812;SDS011;10066;48.108;11.448;2023-05-10T10:37:43;3.30;;;0.80;;
19812;SDS011;10066;48.108;11.448;2023-05-10T10:40:24;0.60;;;0.40;;
19812;SDS011;10066;48.108;11.448;2023-05-10T10:42:52;1.30;;;0.53;;
19812;SDS011;10066;48.108;11.448;2023-05-10T10:45:20;1.20;;;0.53;;
19812;SDS011;10066;48.108;11.448;2023-05-10T10:47:48;2.07;;;0.60;;
19812;SDS011;10066;48.108;11.448;2023-05-10T10:50:21;2.03;;;0.70;;
19812;SDS011;10066;48.108;11.448;2023-05-10T10:52:48;1.17;;;0.83;;
19812;SDS011;10066;48.108;11.448;2023-05-10T10:55:18;2.40;;;1.13;;
19812;SDS011;10066;48.108;11.448;2023-05-10T10:57:48;2.63;;;0.50;;
19812;SDS011;10066;48.108;11.448;2023-05-10T11:00:20;2.40;;;0.97;;
19812;SDS011;10066;48.108;11.448;2023-05-10T11:02:53;1.97;;;0.60;;
19812;SDS011;10066;48.108;11.448;2023-05-10T11:08:16;1.43;;;0.60;;
19812;SDS011;10066;48.108;11.448;2023-05-10T11:10:51;0.90;;;0.50;;
19812;SDS011;10066;48.108;11.448;2023-05-10T11:13:30;1.90;;;0.70;;
19812;SDS011;10066;48.108;11.448;2023-05-10T11:15:58;1.80;;;0.67;;
19812;SDS011;10066;48.108;11.448;2023-05-10T11:18:26;3.23;;;0.77;;
19812;SDS011;10066;48.108;11.448;2023-05-10T11:20:56;4.10;;;0.93;;
19812;SDS011;10066;48.108;11.448;2023-05-10T11:23:29;2.40;;;0.80;;
19812;SDS011;10066;48.108;11.448;2023-05-10T11:25:57;2.47;;;0.90;;
19812;SDS011;10066;48.108;11.448;2023-05-10T11:28:25;3.27;;;0.73;;
19812;SDS011;10066;48.108;11.448;2023-05-10T11:30:53;3.00;;;0.80;;
19812;SDS011;10066;48.108;11.448;2023-05-10T11:33:20;1.53;;;0.87;;
19812;SDS011;10066;48.108;11.448;2023-05-10T11:35:47;1.70;;;0.73;;
19812;SDS011;10066;48.108;11.448;2023-05-10T11:38:16;1.30;;;0.87;;
19812;SDS011;10066;48.108;11.448;2023-05-10T11:40:43;2.27;;;1.43;;
19812;SDS011;10066;48.108;11.448;2023-05-10T11:43:09;3.77;;;1.40;;
19812;SDS011;10066;48.108;11.448;2023-05-10T11:45:37;3.00;;;1.17;;
19812;SDS011;10066;48.108;11.448;2023-05-10T11:48:06;1.37;;;1.00;;
19812;SDS011;10066;48.108;11.448;2023-05-10T11:50:33;1.33;;;0.97;;
19812;SDS011;10066;48.108;11.448;2023-05-10T11:53:00;5.17;;;1.10;;
19812;SDS011;10066;48.108;11.448;2023-05-10T11:55:28;2.87;;;1.20;;
19812;SDS011;10066;48.108;11.448;2023-05-10T11:58:00;5.70;;;1.33;;
19812;SDS011;10066;48.108;11.448;2023-05-10T12:00:27;2.23;;;1.30;;
19812;SDS011;10066;48.108;11.448;2023-05-10T12:02:55;3.70;;;1.47;;
19812;SDS011;10066;48.108;11.448;2023-05-10T12:05:23;2.53;;;1.70;;
19812;SDS011;10066;48.108;11.448;2023-05-10T12:07:50;4.47;;;1.57;;
19812;SDS011;10066;48.108;11.448;2023-05-10T12:10:17;5.27;;;1.93;;
19812;SDS011;10066;48.108;11.448;2023-05-10T12:12:53;5.20;;;1.67;;
19812;SDS011;10066;48.108;11.448;2023-05-10T12:15:21;3.10;;;1.53;;
19812;SDS011;10066;48.108;11.448;2023-05-10T12:17:49;4.93;;;1.60;;
19812;SDS011;10066;48.108;11.448;2023-05-10T12:20:17;2.20;;;1.30;;
19812;SDS011;10066;48.108;11.448;2023-05-10T12:22:46;6.00;;;1.10;;
19812;SDS011;10066;48.108;11.448;2023-05-10T12:25:16;4.30;;;0.90;;
19812;SDS011;10066;48.108;11.448;2023-05-10T12:27:50;1.40;;;0.80;;
19812;SDS011;10066;48.108;11.448;2023-05-10T12:30:20;1.30;;;0.90;;
19812;SDS011;10066;48.108;11.448;2023-05-10T12:32:48;1.90;;;0.90;;
19812;SDS011;10066;48.108;11.448;2023-05-10T12:35:15;3.93;;;0.90;;
19812;SDS011;10066;48.108;11.448;2023-05-10T12:37:45;1.13;;;0.90;;
19812;SDS011;10066;48.108;11.448;2023-05-10T12:40:12;1.60;;;0.70;;
19812;SDS011;10066;48.108;11.448;2023-05-10T12:42:39;1.03;;;0.90;;
19812;SDS011;10066;48.108;11.448;2023-05-10T12:45:07;1.20;;;1.00;;
19812;SDS011;10066;48.108;11.448;2023-05-10T12:47:36;3.97;;;1.17;;
19812;SDS011;10066;48.108;11.448;2023-05-10T12:50:04;1.10;;;1.00;;
19812;SDS011;10066;48.108;11.448;2023-05-10T12:52:31;1.87;;;0.93;;
19812;SDS011;10066;48.108;11.448;2023-05-10T12:54:59;2.43;;;1.40;;
19812;SDS011;10066;48.108;11.448;2023-05-10T12:57:26;3.37;;;1.27;;
19812;SDS011;10066;48.108;11.448;2023-05-10T12:59:53;2.40;;;1.10;;
19812;SDS011;10066;48.108;11.448;2023-05-10T13:02:20;2.77;;;1.00;;
19812;SDS011;10066;48.108;11.448;2023-05-10T13:04:49;3.37;;;1.00;;
19812;SDS011;10066;48.108;11.448;2023-05-10T13:07:17;1.63;;;1.10;;
19812;SDS011;10066;48.108;11.448;2023-05-10T13:09:43;4.73;;;1.13;;
19812;SDS011;10066;48.108;11.448;2023-05-10T13:12:10;4.53;;;1.40;;
19812;SDS011;10066;48.108;11.448;2023-05-10T13:14:38;1.70;;;1.07;;
19812;SDS011;10066;48.108;11.448;2023-05-10T13:17:05;3.57;;;1.30;;
19812;SDS011;10066;48.108;11.448;2023-05-10T13:19:32;1.50;;;1.20;;
19812;SDS011;10066;48.108;11.448;2023-05-10T13:22:01;3.47;;;1.17;;
19812;SDS011;10066;48.108;11.448;2023-05-10T13:24:28;4.67;;;1.30;;
19812;SDS011;10066;48.108;11.448;2023-05-10T13:26:55;2.63;;;1.20;;
19812;SDS011;10066;48.108;11.448;2023-05-10T13:29:22;3.10;;;1.20;;
19812;SDS011;10066;48.108;11.448;2023-05-10T13:31:49;2.63;;;1.30;;
19812;SDS011;10066;48.108;11.448;2023-05-10T13:34:16;2.17;;;1.10;;
19812;SDS011;10066;48.108;11.448;2023-05-10T13:36:45;1.73;;;1.20;;
19812;SDS011;10066;48.108;11.448;2023-05-10T13:39:14;1.83;;;1.20;;
19812;SDS011;10066;48.108;11.448;2023-05-10T13:41:40;2.23;;;1.03;;
19812;SDS011;10066;48.108;11.448;2023-05-10T13:44:07;2.07;;;1.13;;
19812;SDS011;10066;48.108;11.448;2023-05-10T13:46:34;2.43;;;1.20;;
19812;SDS011;10066;48.108;11.448;2023-05-10T13:49:02;1.63;;;1.10;;
19812;SDS011;10066;48.108;11.448;2023-05-10T13:51:29;2.13;;;1.10;;
19812;SDS011;10066;48.108;11.448;2023-05-10T13:53:57;3.13;;;1.40;;
19812;SDS011;10066;48.108;11.448;2023-05-10T13:56:25;4.70;;;1.30;;
19812;SDS011;10066;48.108;11.448;2023-05-10T13:58:52;2.60;;;1.13;;
19812;SDS011;10066;48.108;11.448;2023-05-10T14:01:19;1.87;;;1.10;;
19812;SDS011;10066;48.108;11.448;2023-05-10T14:03:46;2.50;;;1.40;;
19812;SDS011;10066;48.108;11.448;2023-05-10T14:06:13;2.37;;;1.17;;
19812;SDS011;10066;48.108;11.448;2023-05-10T14:08:40;1.70;;;1.00;;
19812;SDS011;10066;48.108;11.448;2023-05-10T14:11:07;1.77;;;1.07;;
19812;SDS011;10066;48.108;11.448;2023-05-10T14:13:35;2.70;;;1.00;;
19812;SDS011;10066;48.108;11.448;2023-05-10T14:16:02;1.50;;;0.97;;
19812;SDS011;10066;48.108;11.448;2023-05-10T14:18:29;3.57;;;0.87;;
19812;SDS011;10066;48.108;11.448;2023-05-10T14:20:56;2.53;;;0.80;;
19812;SDS011;10066;48.108;11.448;2023-05-10T14:23:23;2.53;;;1.20;;
19812;SDS011;10066;48.108;11.448;2023-05-10T14:25:51;2.17;;;1.37;;
19812;SDS011;10066;48.108;11.448;2023-05-10T14:28:18;1.10;;;0.80;;
19812;SDS011;10066;48.108;11.448;2023-05-10T14:30:47;2.83;;;1.20;;
19812;SDS011;10066;48.108;11.448;2023-05-10T14:33:14;1.77;;;1.10;;
19812;SDS011;10066;48.108;11.448;2023-05-10T14:35:41;1.33;;;0.90;;
19812;SDS011;10066;48.108;11.448;2023-05-10T14:38:08;1.00;;;0.90;;
19812;SDS011;10066;48.108;11.448;2023-05-10T14:40:35;1.30;;;0.90;;
19812;SDS011;10066;48.108;11.448;2023-05-10T14:43:02;3.87;;;0.93;;